createdAt,value
2018-12-21T00:02:05.778Z,11.83
2018-12-21T00:04:33.367Z,9.23
2018-12-21T00:07:00.991Z,11.53
2018-12-21T00:09:28.795Z,8.40
2018-12-21T00:11:56.734Z,12.33
2018-12-21T00:14:24.422Z,12.67
2018-12-21T00:16:51.957Z,8.57
2018-12-21T00:19:19.560Z,12.40
2018-12-21T00:21:47.131Z,11.30
2018-12-21T00:24:15.302Z,12.33
2018-12-21T00:26:43.198Z,9.40
2018-12-21T00:29:11.162Z,11.00
2018-12-21T00:31:44.202Z,12.60
2018-12-21T00:34:17.542Z,6.63
2018-12-21T00:36:50.815Z,8.50
2018-12-21T00:39:24.038Z,10.77
2018-12-21T00:41:51.378Z,15.23
2018-12-21T00:44:27.430Z,8.60
2018-12-21T00:46:56.950Z,10.77
2018-12-21T00:49:26.558Z,11.33
2018-12-21T00:51:54.089Z,11.83
2018-12-21T00:54:21.646Z,8.90
2018-12-21T00:56:49.202Z,9.10
2018-12-21T00:59:16.997Z,9.77
2018-12-21T01:01:48.069Z,13.23
2018-12-21T01:04:15.672Z,15.17
2018-12-21T01:06:43.282Z,9.47
2018-12-21T01:09:14.038Z,10.93
2018-12-21T01:11:41.634Z,7.90
2018-12-21T01:14:09.276Z,10.47
2018-12-21T01:16:36.915Z,8.27
2018-12-21T01:19:04.858Z,8.97
2018-12-21T01:21:38.708Z,7.23
2018-12-21T01:24:02.723Z,12.30
2018-12-21T01:26:30.651Z,11.23
2018-12-21T01:29:06.065Z,9.13
2018-12-21T01:31:33.993Z,9.23
2018-12-21T01:34:08.855Z,9.43
2018-12-21T01:36:36.577Z,10.30
2018-12-21T01:39:14.554Z,12.27
2018-12-21T01:42:08.209Z,13.20
2018-12-21T01:44:43.720Z,10.77
2018-12-21T01:47:11.562Z,4.07
2018-12-21T01:49:47.253Z,9.40
2018-12-21T01:52:15.006Z,13.20
2018-12-21T01:54:50.698Z,8.73
2018-12-21T01:57:26.562Z,10.80
2018-12-21T01:59:54.162Z,14.13
2018-12-21T02:02:29.598Z,12.13
2018-12-21T02:05:05.049Z,6.90
2018-12-21T02:07:32.641Z,9.80
2018-12-21T02:10:00.166Z,4.37
2018-12-21T02:12:35.201Z,10.87
2018-12-21T02:15:06.370Z,7.20
2018-12-21T02:17:34.174Z,9.70
2018-12-21T02:20:02.094Z,6.60
2018-12-21T02:22:30.778Z,10.80
2018-12-21T02:24:58.656Z,8.63
2018-12-21T02:27:26.279Z,10.23
2018-12-21T02:29:53.878Z,8.57
2018-12-21T02:32:21.500Z,8.10
2018-12-21T02:34:49.198Z,8.73
2018-12-21T02:37:17.211Z,8.90
2018-12-21T02:39:44.806Z,16.17
2018-12-21T02:42:12.400Z,7.10
2018-12-21T02:44:39.990Z,7.77
2018-12-21T02:47:07.606Z,10.57
2018-12-21T02:49:35.474Z,9.03
2018-12-21T02:52:05.688Z,12.60
2018-12-21T02:54:33.050Z,9.57
2018-12-21T02:57:00.943Z,10.47
2018-12-21T02:59:28.554Z,9.70
2018-12-21T03:01:56.162Z,8.10
2018-12-21T03:04:23.745Z,7.23
2018-12-21T03:06:51.524Z,9.97
2018-12-21T03:09:19.461Z,6.93
2018-12-21T03:11:47.037Z,11.77
2018-12-21T03:14:14.616Z,8.43
2018-12-21T03:16:42.168Z,7.63
2018-12-21T03:19:17.742Z,11.43
2018-12-21T03:21:56.068Z,6.73
2018-12-21T03:24:23.864Z,11.30
2018-12-21T03:26:51.850Z,8.33
2018-12-21T03:29:23.202Z,7.73
2018-12-21T03:31:58.410Z,5.53
2018-12-21T03:34:25.992Z,9.07
2018-12-21T03:37:01.601Z,7.23
2018-12-21T03:39:29.312Z,5.23
2018-12-21T03:42:24.726Z,6.90
2018-12-21T03:45:00.241Z,5.63
2018-12-21T03:47:35.201Z,8.37
2018-12-21T03:50:24.386Z,9.13
2018-12-21T03:52:52.137Z,8.83
2018-12-21T03:55:19.714Z,4.90
2018-12-21T03:57:55.168Z,6.73
2018-12-21T04:00:22.727Z,6.23
2018-12-21T04:02:50.333Z,8.87
2018-12-21T04:05:18.137Z,4.90
2018-12-21T04:07:45.923Z,4.13
2018-12-21T04:10:13.582Z,10.17
2018-12-21T04:12:48.966Z,7.00
2018-12-21T04:15:23.670Z,5.57
2018-12-21T04:17:59.046Z,4.20
2018-12-21T04:20:34.645Z,4.50
2018-12-21T04:23:02.206Z,6.73
2018-12-21T04:25:29.751Z,8.23
2018-12-21T04:27:57.590Z,4.97
2018-12-21T04:30:25.351Z,4.53
2018-12-21T04:32:53.291Z,5.33
2018-12-21T04:35:20.839Z,4.07
2018-12-21T04:38:23.329Z,4.47
2018-12-21T04:40:54.559Z,5.93
2018-12-21T04:43:26.146Z,6.23
2018-12-21T04:46:01.168Z,3.37
2018-12-21T04:49:10.467Z,3.77
2018-12-21T04:51:45.862Z,3.03
2018-12-21T04:54:20.982Z,3.27
2018-12-21T04:56:55.729Z,7.20
2018-12-21T04:59:23.272Z,3.63
2018-12-21T05:01:59.072Z,2.40
2018-12-21T05:04:26.618Z,4.00
2018-12-21T05:06:54.194Z,3.33
2018-12-21T05:09:29.333Z,4.10
2018-12-21T05:11:56.863Z,2.53
2018-12-21T05:14:24.619Z,3.53
2018-12-21T05:17:02.656Z,3.30
2018-12-21T05:19:30.252Z,2.00
2018-12-21T05:22:05.529Z,3.77
2018-12-21T05:24:33.243Z,1.80
2018-12-21T05:27:00.842Z,1.63
2018-12-21T05:29:28.403Z,2.57
2018-12-21T05:31:56.054Z,2.97
2018-12-21T05:34:24.046Z,1.63
2018-12-21T05:36:51.738Z,2.17
2018-12-21T05:39:19.332Z,3.20
2018-12-21T05:41:46.937Z,2.37
2018-12-21T05:44:14.542Z,2.90
2018-12-21T05:46:42.422Z,2.60
2018-12-21T05:49:10.735Z,2.90
2018-12-21T05:51:38.516Z,4.53
2018-12-21T05:54:06.074Z,2.43
2018-12-21T05:56:33.658Z,4.03
2018-12-21T05:59:05.467Z,2.77
2018-12-21T06:01:40.764Z,3.10
2018-12-21T06:04:16.027Z,5.10
2018-12-21T06:06:51.000Z,4.23
2018-12-21T06:09:26.059Z,4.00
2018-12-21T06:12:01.831Z,4.33
2018-12-21T06:14:36.482Z,5.17
2018-12-21T06:17:11.601Z,5.10
2018-12-21T06:19:46.546Z,5.60
2018-12-21T06:22:21.535Z,6.13
2018-12-21T06:24:52.332Z,6.10
2018-12-21T06:30:48.151Z,6.07
2018-12-21T06:33:16.002Z,7.73
2018-12-21T06:35:51.327Z,8.13
2018-12-21T06:38:26.402Z,8.00
2018-12-21T06:41:01.415Z,7.07
2018-12-21T06:43:36.383Z,6.17
2018-12-21T06:46:14.303Z,6.93
2018-12-21T06:52:08.540Z,6.40
2018-12-21T06:54:37.553Z,9.27
2018-12-21T06:57:05.355Z,6.80
2018-12-21T06:59:33.154Z,7.67
2018-12-21T07:02:01.002Z,7.20
2018-12-21T07:04:28.607Z,6.13
2018-12-21T07:06:56.292Z,7.10
2018-12-21T07:09:24.421Z,6.60
2018-12-21T07:11:52.308Z,5.93
2018-12-21T07:14:19.904Z,7.10
2018-12-21T07:16:47.509Z,7.93
2018-12-21T07:19:15.264Z,7.03
2018-12-21T07:21:43.614Z,7.53
2018-12-21T07:24:11.642Z,8.47
2018-12-21T07:26:39.525Z,6.60
2018-12-21T07:29:07.203Z,7.00
2018-12-21T07:31:42.893Z,7.87
2018-12-21T07:34:13.865Z,5.60
2018-12-21T07:36:41.695Z,5.33
2018-12-21T07:39:09.329Z,7.33
2018-12-21T07:41:37.090Z,6.73
2018-12-21T07:44:12.775Z,5.10
2018-12-21T07:46:40.474Z,4.70
2018-12-21T07:49:08.041Z,4.50
2018-12-21T07:51:49.238Z,3.00
2018-12-21T07:54:24.510Z,2.70
2018-12-21T07:56:59.352Z,3.17
2018-12-21T07:59:34.781Z,3.97
2018-12-21T08:02:19.172Z,2.33
2018-12-21T08:05:21.753Z,2.07
2018-12-21T08:07:56.885Z,2.17
2018-12-21T08:10:32.591Z,1.80
2018-12-21T08:13:08.343Z,1.40
2018-12-21T08:15:52.836Z,1.20
2018-12-21T08:18:28.275Z,1.50
2018-12-21T08:21:03.933Z,1.23
2018-12-21T08:23:31.854Z,2.03
2018-12-21T08:25:59.762Z,2.40
2018-12-21T08:28:35.161Z,1.03
2018-12-21T08:31:02.813Z,1.30
2018-12-21T08:33:38.025Z,1.70
2018-12-21T08:36:12.890Z,1.80
2018-12-21T08:38:40.607Z,3.00
2018-12-21T08:41:08.457Z,2.70
2018-12-21T08:43:36.202Z,3.57
2018-12-21T08:46:03.810Z,4.43
2018-12-21T08:48:39.247Z,5.33
2018-12-21T08:51:06.810Z,4.17
2018-12-21T08:53:42.055Z,3.47
2018-12-21T08:56:13.546Z,3.50
2018-12-21T08:58:48.431Z,5.00
2018-12-21T09:01:23.642Z,3.00
2018-12-21T09:04:32.245Z,3.70
2018-12-21T09:07:04.194Z,3.33
2018-12-21T09:09:39.795Z,6.37
2018-12-21T09:12:14.954Z,5.07
2018-12-21T09:14:49.833Z,9.27
2018-12-21T09:17:25.694Z,12.47
2018-12-21T09:19:56.405Z,12.60
2018-12-21T09:22:52.555Z,14.90
2018-12-21T09:25:20.210Z,14.47
2018-12-21T09:27:48.073Z,20.60
2018-12-21T09:30:15.812Z,13.60
2018-12-21T09:32:43.423Z,19.23
2018-12-21T09:35:11.050Z,18.27
2018-12-21T09:37:40.195Z,13.33
2018-12-21T09:40:12.329Z,19.40
2018-12-21T09:42:40.219Z,21.87
2018-12-21T09:45:07.819Z,15.00
2018-12-21T09:47:35.406Z,19.60
2018-12-21T09:50:03.252Z,15.67
2018-12-21T09:52:31.014Z,14.47
2018-12-21T09:54:58.581Z,22.17
2018-12-21T09:57:26.151Z,18.47
2018-12-21T09:59:53.790Z,19.23
2018-12-21T10:02:38.622Z,19.67
2018-12-21T10:05:08.534Z,21.77
2018-12-21T10:07:36.550Z,17.97
2018-12-21T10:10:04.487Z,24.80
2018-12-21T10:12:32.217Z,18.63
2018-12-21T10:15:03.600Z,16.00
2018-12-21T10:17:38.927Z,23.57
2018-12-21T10:20:13.527Z,18.93
2018-12-21T10:22:41.097Z,20.30
2018-12-21T10:25:16.351Z,22.00
2018-12-21T10:27:43.950Z,20.47
2018-12-21T10:30:11.906Z,17.87
2018-12-21T10:32:39.724Z,12.20
2018-12-21T10:35:07.302Z,21.20
2018-12-21T10:37:34.878Z,19.90
2018-12-21T10:40:02.890Z,18.90
2018-12-21T10:42:30.742Z,19.03
2018-12-21T10:44:58.512Z,20.30
2018-12-21T10:47:39.149Z,14.80
2018-12-21T10:50:20.026Z,24.93
2018-12-21T10:52:55.382Z,22.90
2018-12-21T10:55:22.964Z,22.93
2018-12-21T10:57:50.830Z,18.07
2018-12-21T11:00:47.090Z,19.37
2018-12-21T11:03:15.013Z,26.70
2018-12-21T11:05:42.963Z,20.57
2018-12-21T11:08:10.544Z,28.33
2018-12-21T11:10:38.149Z,23.77
2018-12-21T11:13:05.723Z,21.73
2018-12-21T11:15:33.662Z,21.17
2018-12-21T11:18:01.344Z,17.87
2018-12-21T11:20:28.901Z,26.23
2018-12-21T11:22:56.501Z,22.13
2018-12-21T11:25:24.413Z,20.13
2018-12-21T11:27:52.365Z,26.40
2018-12-21T11:30:20.057Z,27.93
2018-12-21T11:32:47.634Z,27.13
2018-12-21T11:35:15.166Z,19.87
2018-12-21T11:37:42.997Z,25.73
2018-12-21T11:40:10.790Z,19.53
2018-12-21T11:42:38.350Z,17.03
2018-12-21T11:45:08.051Z,28.43
2018-12-21T11:47:35.669Z,27.57
2018-12-21T11:50:03.851Z,24.50
2018-12-21T11:52:31.726Z,26.33
2018-12-21T11:54:59.579Z,24.33
2018-12-21T11:57:27.662Z,23.77
2018-12-21T11:59:55.234Z,24.27
2018-12-21T12:02:22.787Z,20.70
2018-12-21T12:04:50.674Z,29.13
2018-12-21T12:07:18.502Z,28.27
2018-12-21T12:09:46.031Z,22.27
2018-12-21T12:12:13.615Z,22.33
2018-12-21T12:14:41.310Z,17.30
2018-12-21T14:07:50.412Z,29.97
2018-12-21T14:10:26.055Z,24.73
2018-12-21T14:13:24.158Z,28.83
2018-12-21T14:15:52.022Z,29.00
2018-12-21T14:18:19.625Z,28.80
2018-12-21T14:20:55.059Z,27.93
2018-12-21T14:23:22.655Z,22.67
2018-12-21T14:25:50.254Z,25.77
2018-12-21T14:28:18.122Z,23.27
2018-12-21T14:30:49.507Z,24.23
2018-12-21T14:33:17.114Z,27.67
2018-12-21T14:35:44.860Z,30.33
2018-12-21T14:38:12.891Z,25.67
2018-12-21T14:40:40.804Z,37.00
2018-12-21T14:43:08.393Z,36.23
2018-12-21T14:45:35.952Z,26.30
2018-12-21T14:48:03.854Z,37.67
2018-12-21T14:50:31.750Z,30.77
2018-12-21T14:52:59.366Z,33.03
2018-12-21T14:55:37.554Z,33.10
2018-12-21T14:58:12.868Z,29.83
2018-12-21T15:00:40.458Z,31.10
2018-12-21T15:03:08.279Z,26.27
2018-12-21T15:05:35.955Z,35.00
2018-12-21T15:08:03.567Z,21.83
2018-12-21T15:10:31.089Z,20.97
2018-12-21T15:12:58.869Z,23.43
2018-12-21T15:15:26.738Z,29.23
2018-12-21T15:17:54.322Z,30.70
2018-12-21T15:20:22.123Z,26.47
2018-12-21T15:22:49.939Z,22.00
2018-12-21T15:25:17.763Z,23.67
2018-12-21T15:27:46.372Z,33.33
2018-12-21T15:30:24.560Z,27.47
2018-12-21T15:32:52.160Z,25.40
2018-12-21T15:35:19.925Z,30.07
2018-12-21T15:37:47.862Z,36.30
2018-12-21T15:40:15.442Z,26.70
2018-12-21T15:42:43.014Z,26.57
2018-12-21T15:45:10.699Z,26.17
2018-12-21T15:47:38.453Z,36.00
2018-12-21T15:55:08.482Z,33.23
2018-12-21T15:57:36.169Z,32.43
2018-12-21T16:00:04.965Z,37.73
2018-12-21T16:02:32.910Z,28.10
2018-12-21T16:05:00.553Z,29.87
2018-12-21T16:07:28.140Z,32.67
2018-12-21T16:09:56.123Z,26.47
2018-12-21T16:12:24.066Z,39.33
2018-12-21T16:14:51.690Z,30.37
2018-12-21T16:17:19.258Z,26.73
2018-12-21T16:19:46.974Z,35.43
2018-12-21T16:22:14.801Z,32.37
2018-12-21T16:24:42.393Z,24.30
2018-12-21T16:27:09.951Z,29.43
2018-12-21T16:29:37.778Z,31.90
2018-12-21T16:32:05.513Z,21.33
2018-12-21T16:34:33.102Z,28.60
2018-12-21T16:37:00.748Z,26.03
2018-12-21T16:39:28.573Z,20.80
2018-12-21T16:41:56.381Z,36.67
2018-12-21T16:44:24.006Z,30.70
2018-12-21T16:46:51.590Z,28.67
2018-12-21T16:49:19.578Z,29.23
2018-12-21T16:51:47.485Z,29.20
2018-12-21T16:54:15.072Z,18.40
2018-12-21T16:56:42.699Z,25.63
2018-12-21T16:59:10.532Z,29.47
2018-12-21T17:01:38.398Z,26.77
2018-12-21T17:04:05.941Z,29.37
2018-12-21T17:06:33.543Z,23.57
2018-12-21T17:09:01.599Z,33.33
2018-12-21T17:11:29.395Z,30.33
2018-12-21T17:13:56.982Z,34.23
2018-12-21T17:16:24.613Z,34.13
2018-12-21T17:18:56.223Z,26.43
2018-12-21T17:21:23.927Z,27.47
2018-12-21T17:23:51.494Z,31.90
2018-12-21T17:26:21.364Z,31.40
2018-12-21T17:28:49.255Z,28.10
2018-12-21T17:31:17.274Z,25.60
2018-12-21T17:33:45.224Z,30.37
2018-12-21T17:36:12.842Z,30.23
2018-12-21T17:38:40.562Z,24.93
2018-12-21T17:41:08.536Z,26.40
2018-12-21T17:43:36.546Z,27.97
2018-12-21T17:46:04.121Z,28.77
2018-12-21T17:48:31.727Z,28.03
2018-12-21T17:50:59.500Z,27.77
2018-12-21T17:53:27.167Z,21.87
2018-12-21T17:55:54.750Z,8.63
2018-12-21T17:58:22.622Z,14.03
2018-12-21T18:00:50.438Z,11.60
2018-12-21T18:03:27.870Z,10.20
2018-12-21T18:05:55.714Z,8.60
2018-12-21T18:08:23.882Z,11.60
2018-12-21T18:10:51.894Z,7.10
2018-12-21T18:13:19.514Z,10.53
2018-12-21T18:15:47.128Z,12.23
2018-12-21T18:18:15.121Z,11.70
2018-12-21T18:20:43.157Z,11.93
2018-12-21T18:23:12.566Z,10.93
2018-12-21T18:25:40.129Z,12.73
2018-12-21T18:28:11.161Z,12.00
2018-12-21T18:30:45.862Z,10.73
2018-12-21T18:33:15.178Z,9.57
2018-12-21T18:35:42.947Z,10.07
2018-12-21T18:38:14.013Z,5.80
2018-12-21T18:40:45.011Z,7.63
2018-12-21T18:43:12.706Z,7.23
2018-12-21T18:45:40.461Z,8.00
2018-12-21T18:48:08.463Z,11.37
2018-12-21T18:50:36.124Z,9.33
2018-12-21T18:53:03.715Z,10.87
2018-12-21T18:55:31.498Z,13.93
2018-12-21T18:57:59.304Z,7.03
2018-12-21T19:00:27.012Z,7.07
2018-12-21T19:02:54.611Z,12.37
2018-12-21T19:05:22.679Z,10.20
2018-12-21T19:07:50.548Z,15.23
2018-12-21T19:10:18.166Z,12.63
2018-12-21T19:12:45.730Z,11.50
2018-12-21T19:15:13.545Z,14.67
2018-12-21T19:17:41.434Z,11.60
2018-12-21T19:20:12.022Z,8.93
2018-12-21T19:22:40.158Z,12.53
2018-12-21T19:25:09.730Z,13.87
2018-12-21T19:27:37.338Z,11.20
2018-12-21T19:30:07.175Z,12.60
2018-12-21T19:32:34.777Z,14.60
2018-12-21T19:35:02.730Z,7.47
2018-12-21T19:37:30.986Z,15.93
2018-12-21T19:39:59.597Z,14.87
2018-12-21T19:42:27.311Z,14.83
2018-12-21T19:44:55.149Z,19.27
2018-12-21T19:47:22.830Z,16.77
2018-12-21T19:49:50.912Z,14.27
2018-12-21T19:52:18.802Z,14.70
2018-12-21T19:54:50.517Z,11.23
2018-12-21T19:57:18.403Z,12.53
2018-12-21T19:59:45.954Z,14.73
2018-12-21T20:02:13.633Z,10.00
2018-12-21T20:04:41.715Z,9.37
2018-12-21T20:07:09.657Z,15.50
2018-12-21T20:09:37.293Z,8.63
2018-12-21T20:12:05.918Z,6.63
2018-12-21T20:14:33.711Z,9.53
2018-12-21T20:17:01.577Z,10.10
2018-12-21T20:19:29.197Z,16.63
2018-12-21T20:21:56.795Z,11.00
2018-12-21T20:24:27.921Z,9.37
2018-12-21T20:26:59.321Z,17.13
2018-12-21T20:29:27.370Z,9.30
2018-12-21T20:31:54.960Z,11.67
2018-12-21T20:34:22.565Z,10.57
2018-12-21T20:36:50.762Z,13.80
2018-12-21T20:39:21.406Z,15.27
2018-12-21T20:41:49.382Z,13.83
2018-12-21T20:44:17.326Z,18.80
2018-12-21T20:46:44.951Z,15.07
2018-12-21T20:49:12.615Z,19.00
2018-12-21T20:51:40.293Z,19.37
2018-12-21T20:54:08.149Z,10.87
2018-12-21T20:56:35.802Z,11.37
2018-12-21T20:59:08.026Z,12.27
2018-12-21T21:01:35.949Z,6.30
2018-12-21T21:04:03.517Z,12.23
2018-12-21T21:06:31.142Z,11.47
2018-12-21T21:08:58.809Z,11.13
2018-12-21T21:11:26.673Z,9.50
2018-12-21T21:13:54.437Z,9.93
2018-12-21T21:16:22.005Z,7.37
2018-12-21T21:18:49.789Z,12.53
2018-12-21T21:21:17.747Z,10.03
2018-12-21T21:23:45.314Z,11.47
2018-12-21T21:26:12.963Z,7.07
2018-12-21T21:28:40.910Z,11.93
2018-12-21T21:31:16.471Z,15.47
2018-12-21T21:33:44.402Z,9.50
2018-12-21T21:36:12.360Z,11.00
2018-12-21T21:38:39.917Z,13.40
2018-12-21T21:41:07.499Z,15.03
2018-12-21T21:43:35.451Z,12.30
2018-12-21T21:51:03.327Z,15.97
2018-12-21T21:53:31.238Z,25.40
2018-12-21T21:55:58.794Z,29.90
2018-12-21T21:58:26.427Z,31.37
2018-12-21T22:00:54.451Z,25.40
2018-12-21T22:03:22.349Z,25.90
2018-12-21T22:05:50.361Z,33.03
2018-12-21T22:08:17.985Z,25.77
2018-12-21T22:10:45.523Z,38.77
2018-12-21T22:13:13.415Z,37.43
2018-12-21T22:15:41.306Z,22.97
2018-12-21T22:18:09.010Z,34.37
2018-12-21T22:20:36.557Z,38.77
2018-12-21T22:23:04.618Z,46.03
2018-12-21T22:25:32.154Z,37.23
2018-12-21T22:27:59.714Z,43.00
2018-12-21T22:30:27.415Z,54.40
2018-12-21T22:32:55.307Z,47.90
2018-12-21T22:35:22.910Z,52.63
2018-12-21T22:37:50.514Z,39.13
2018-12-21T22:40:18.482Z,36.83
2018-12-21T22:42:46.340Z,38.87
2018-12-21T22:45:13.876Z,36.40
2018-12-21T22:47:41.467Z,42.97
2018-12-21T22:50:09.512Z,45.27
2018-12-21T22:52:37.549Z,49.57
2018-12-21T22:55:06.616Z,46.53
2018-12-21T22:57:34.262Z,37.43
2018-12-21T23:00:02.299Z,42.40
2018-12-21T23:02:30.155Z,39.63
2018-12-21T23:04:57.849Z,42.47
2018-12-21T23:07:25.551Z,44.00
2018-12-21T23:09:53.234Z,54.63
2018-12-21T23:12:21.090Z,36.80
2018-12-21T23:14:48.650Z,49.80
2018-12-21T23:17:23.830Z,37.30
2018-12-21T23:19:51.527Z,35.80
2018-12-21T23:22:23.220Z,46.87
2018-12-21T23:24:50.846Z,37.87
2018-12-21T23:27:18.434Z,41.03
2018-12-21T23:29:46.379Z,36.20
2018-12-21T23:32:14.274Z,36.20
2018-12-21T23:34:41.913Z,43.63
2018-12-21T23:37:17.438Z,40.97
2018-12-21T23:39:45.018Z,35.77
2018-12-21T23:42:12.746Z,33.63
2018-12-21T23:44:40.650Z,31.30
2018-12-21T23:47:08.251Z,40.03
2018-12-21T23:49:35.829Z,40.20
2018-12-21T23:52:03.567Z,34.50
2018-12-21T23:54:31.446Z,36.53
2018-12-21T23:56:59.002Z,44.93
2018-12-21T23:59:26.633Z,37.03
